createdAt,value
2018-11-13T00:01:44.054Z,3.50
2018-11-13T00:06:49.682Z,4.50
2018-11-13T00:09:17.777Z,3.90
2018-11-13T00:11:45.898Z,3.03
2018-11-13T00:14:14.049Z,3.33
2018-11-13T00:16:42.169Z,3.50
2018-11-13T00:19:10.275Z,3.77
2018-11-13T00:21:38.389Z,4.40
2018-11-13T00:24:06.562Z,2.93
2018-11-13T00:26:34.612Z,3.37
2018-11-13T00:29:02.721Z,4.83
2018-11-13T00:31:30.874Z,2.87
2018-11-13T00:33:58.955Z,6.30
2018-11-13T00:36:27.051Z,5.13
2018-11-13T00:38:55.235Z,6.20
2018-11-13T00:41:23.346Z,5.63
2018-11-13T00:43:51.477Z,5.93
2018-11-13T00:46:19.587Z,4.78
2018-11-13T00:48:47.690Z,3.87
2018-11-13T00:51:15.778Z,4.13
2018-11-13T00:53:43.863Z,5.10
2018-11-13T00:56:11.998Z,6.50
2018-11-13T00:58:40.087Z,4.20
2018-11-13T01:01:08.173Z,5.77
2018-11-13T01:03:36.249Z,5.07
2018-11-13T01:06:04.361Z,5.90
2018-11-13T01:08:32.458Z,5.67
2018-11-13T01:11:00.555Z,5.10
2018-11-13T01:13:29.096Z,4.40
2018-11-13T01:15:56.803Z,4.08
2018-11-13T01:18:24.913Z,5.33
2018-11-13T01:20:53.076Z,5.80
2018-11-13T01:23:21.189Z,5.10
2018-11-13T01:25:49.281Z,4.70
2018-11-13T01:28:17.366Z,3.10
2018-11-13T01:30:45.707Z,4.53
2018-11-13T01:33:13.798Z,6.30
2018-11-13T01:35:41.898Z,5.30
2018-11-13T01:38:09.995Z,4.47
2018-11-13T01:40:38.129Z,5.43
2018-11-13T01:43:06.255Z,8.90
2018-11-13T01:45:34.435Z,3.00
2018-11-13T01:48:02.580Z,3.27
2018-11-13T01:50:30.671Z,3.47
2018-11-13T01:52:58.788Z,2.80
2018-11-13T01:55:26.890Z,2.20
2018-11-13T01:57:55.015Z,3.27
2018-11-13T02:00:23.969Z,2.70
2018-11-13T02:02:53.268Z,4.40
2018-11-13T02:05:22.417Z,4.43
2018-11-13T02:07:50.959Z,2.70
2018-11-13T02:10:19.357Z,4.87
2018-11-13T02:12:48.786Z,2.60
2018-11-13T02:15:17.844Z,3.73
2018-11-13T02:17:45.971Z,3.90
2018-11-13T02:20:15.491Z,3.40
2018-11-13T02:22:43.739Z,4.30
2018-11-13T02:25:13.414Z,4.20
2018-11-13T02:27:42.086Z,2.90
2018-11-13T02:30:12.926Z,3.80
2018-11-13T02:32:41.556Z,5.27
2018-11-13T02:35:10.463Z,4.53
2018-11-13T02:37:38.587Z,4.40
2018-11-13T02:40:06.862Z,3.60
2018-11-13T02:42:36.139Z,5.00
2018-11-13T02:45:05.219Z,3.90
2018-11-13T02:47:33.331Z,3.70
2018-11-13T02:50:01.455Z,2.00
2018-11-13T02:52:29.574Z,3.40
2018-11-13T02:54:57.676Z,6.07
2018-11-13T02:57:25.819Z,4.13
2018-11-13T02:59:53.927Z,2.93
2018-11-13T03:02:22.090Z,3.50
2018-11-13T03:04:50.783Z,5.35
2018-11-13T03:07:18.919Z,5.10
2018-11-13T03:09:47.027Z,5.03
2018-11-13T03:12:15.122Z,3.97
2018-11-13T03:14:43.241Z,4.27
2018-11-13T03:17:11.385Z,2.90
2018-11-13T03:19:39.478Z,3.13
2018-11-13T03:22:07.579Z,3.30
2018-11-13T03:24:35.912Z,4.20
2018-11-13T03:27:04.050Z,3.37
2018-11-13T03:29:32.227Z,3.57
2018-11-13T03:32:00.374Z,4.67
2018-11-13T03:34:28.458Z,3.27
2018-11-13T03:36:56.567Z,2.90
2018-11-13T03:39:24.675Z,6.03
2018-11-13T03:41:52.880Z,5.27
2018-11-13T03:44:21.017Z,3.33
2018-11-13T03:46:49.140Z,4.57
2018-11-13T03:49:17.211Z,3.67
2018-11-13T03:51:45.247Z,2.20
2018-11-13T03:54:13.286Z,3.37
2018-11-13T03:56:41.367Z,3.50
2018-11-13T03:59:09.420Z,3.20
2018-11-13T04:01:37.480Z,2.55
2018-11-13T04:04:11.117Z,3.13
2018-11-13T04:06:39.151Z,3.60
2018-11-13T04:09:09.117Z,2.20
2018-11-13T04:11:37.249Z,4.73
2018-11-13T04:14:05.410Z,3.13
2018-11-13T04:16:33.471Z,3.33
2018-11-13T04:19:01.511Z,2.43
2018-11-13T04:21:29.538Z,2.70
2018-11-13T04:23:57.583Z,2.63
2018-11-13T04:26:25.860Z,2.67
2018-11-13T04:28:53.894Z,3.10
2018-11-13T04:31:21.937Z,1.60
2018-11-13T04:33:50.053Z,2.33
2018-11-13T04:36:18.185Z,2.87
2018-11-13T04:38:46.290Z,2.33
2018-11-13T04:41:14.374Z,2.37
2018-11-13T04:43:42.434Z,3.30
2018-11-13T04:46:10.527Z,2.83
2018-11-13T04:48:38.630Z,2.40
2018-11-13T04:51:06.683Z,2.57
2018-11-13T04:53:34.777Z,2.20
2018-11-13T04:56:02.899Z,3.40
2018-11-13T04:58:30.972Z,2.57
2018-11-13T05:00:59.038Z,4.00
2018-11-13T05:03:27.878Z,3.27
2018-11-13T05:05:56.010Z,2.77
2018-11-13T05:08:24.088Z,3.50
2018-11-13T05:10:52.144Z,2.50
2018-11-13T05:13:20.173Z,3.40
2018-11-13T05:15:48.210Z,3.00
2018-11-13T05:18:16.255Z,5.67
2018-11-13T05:20:44.328Z,3.17
2018-11-13T05:23:12.474Z,4.30
2018-11-13T05:25:40.495Z,3.00
2018-11-13T05:28:08.565Z,8.13
2018-11-13T05:30:36.631Z,3.10
2018-11-13T05:33:04.781Z,2.33
2018-11-13T05:35:32.848Z,4.17
2018-11-13T05:38:00.918Z,3.10
2018-11-13T05:40:28.987Z,8.00
2018-11-13T05:42:57.119Z,1.97
2018-11-13T05:45:26.109Z,4.00
2018-11-13T05:47:54.177Z,4.80
2018-11-13T05:50:22.219Z,7.97
2018-11-13T05:52:51.623Z,3.27
2018-11-13T05:55:19.694Z,8.23
2018-11-13T05:57:47.888Z,3.50
2018-11-13T06:00:17.474Z,5.23
2018-11-13T06:02:45.509Z,4.47
2018-11-13T06:05:13.949Z,4.27
2018-11-13T06:07:42.070Z,9.40
2018-11-13T06:10:11.002Z,6.27
2018-11-13T06:12:39.042Z,4.93
2018-11-13T06:15:07.584Z,4.33
2018-11-13T06:17:35.639Z,5.60
2018-11-13T06:20:03.882Z,3.53
2018-11-13T06:22:32.170Z,2.67
2018-11-13T06:25:00.247Z,4.40
2018-11-13T06:27:28.315Z,2.60
2018-11-13T06:29:56.392Z,2.27
2018-11-13T06:32:24.469Z,1.70
2018-11-13T06:34:52.499Z,2.33
2018-11-13T06:37:20.551Z,5.13
2018-11-13T06:39:48.594Z,3.33
2018-11-13T06:42:16.625Z,2.97
2018-11-13T06:44:44.715Z,3.30
2018-11-13T06:47:12.766Z,4.30
2018-11-13T06:49:40.848Z,4.60
2018-11-13T06:52:08.895Z,4.20
2018-11-13T06:54:54.803Z,3.33
2018-11-13T06:57:22.942Z,2.10
2018-11-13T06:59:51.059Z,2.93
2018-11-13T07:02:19.186Z,2.90
2018-11-13T07:04:47.347Z,2.77
2018-11-13T07:07:15.386Z,2.47
2018-11-13T07:09:43.426Z,3.13
2018-11-13T07:12:11.486Z,3.00
2018-11-13T07:14:39.531Z,2.93
2018-11-13T07:17:07.659Z,2.63
2018-11-13T07:19:35.739Z,2.10
2018-11-13T07:22:03.770Z,2.80
2018-11-13T07:24:31.944Z,2.17
2018-11-13T07:27:00.144Z,2.30
2018-11-13T07:29:28.270Z,2.37
2018-11-13T07:31:56.440Z,9.20
2018-11-13T07:34:24.835Z,2.20
2018-11-13T07:36:53.573Z,5.10
2018-11-13T07:39:21.912Z,1.90
2018-11-13T07:41:50.023Z,6.50
2018-11-13T07:44:18.212Z,2.10
2018-11-13T07:46:46.441Z,1.70
2018-11-13T07:49:14.596Z,2.43
2018-11-13T07:51:42.795Z,1.33
2018-11-13T07:54:10.930Z,1.50
2018-11-13T07:56:39.957Z,1.50
2018-11-13T07:59:08.201Z,2.00
2018-11-13T08:01:36.334Z,6.87
2018-11-13T08:04:04.680Z,2.20
2018-11-13T08:06:32.991Z,2.20
2018-11-13T08:09:01.094Z,2.43
2018-11-13T08:11:29.238Z,2.10
2018-11-13T08:13:57.331Z,2.97
2018-11-13T08:16:25.702Z,3.95
2018-11-13T08:18:53.809Z,5.80
2018-11-13T08:21:21.788Z,5.90
2018-11-13T08:23:49.930Z,3.90
2018-11-13T08:26:18.244Z,2.20
2018-11-13T08:28:46.456Z,4.00
2018-11-13T08:31:14.508Z,2.22
2018-11-13T08:33:43.038Z,2.50
2018-11-13T08:36:11.236Z,7.80
2018-11-13T08:38:39.390Z,8.00
2018-11-13T08:41:07.984Z,5.00
2018-11-13T08:43:36.158Z,1.90
2018-11-13T08:46:04.596Z,1.40
2018-11-13T08:48:32.751Z,3.70
2018-11-13T08:51:00.858Z,10.63
2018-11-13T08:53:28.992Z,4.95
2018-11-13T08:55:57.146Z,7.58
2018-11-13T08:58:25.374Z,5.25
2018-11-13T09:00:53.598Z,3.50
2018-11-13T09:03:21.772Z,6.13
2018-11-13T09:05:49.938Z,1.93
2018-11-13T09:08:18.088Z,3.83
2018-11-13T09:10:46.238Z,1.80
2018-11-13T09:13:14.667Z,5.57
2018-11-13T09:15:42.807Z,3.97
2018-11-13T09:18:11.075Z,3.63
2018-11-13T09:20:39.256Z,4.10
2018-11-13T09:23:07.448Z,9.93
2018-11-13T09:25:35.621Z,7.97
2018-11-13T09:28:03.789Z,6.60
2018-11-13T09:30:32.099Z,6.47
2018-11-13T09:33:00.047Z,2.27
2018-11-13T09:35:28.231Z,6.20
2018-11-13T09:37:56.369Z,6.42
2018-11-13T09:40:24.527Z,11.97
2018-11-13T09:42:52.755Z,4.67
2018-11-13T09:45:20.913Z,5.20
2018-11-13T09:47:49.197Z,3.27
2018-11-13T09:50:18.759Z,3.70
2018-11-13T09:52:48.558Z,9.60
2018-11-13T09:55:18.732Z,5.60
2018-11-13T09:57:47.734Z,5.62
2018-11-13T10:00:18.742Z,3.20
2018-11-13T10:02:51.618Z,4.23
2018-11-13T10:05:20.171Z,6.90
2018-11-13T10:07:48.855Z,6.07
2018-11-13T10:10:17.022Z,4.33
2018-11-13T10:12:45.086Z,4.27
2018-11-13T10:15:16.101Z,5.40
2018-11-13T10:17:44.316Z,5.93
2018-11-13T10:20:13.686Z,4.63
2018-11-13T10:22:43.002Z,13.17
2018-11-13T10:25:11.973Z,7.10
2018-11-13T10:27:40.529Z,8.63
2018-11-13T10:30:10.906Z,11.27
2018-11-13T10:32:39.187Z,7.63
2018-11-13T10:35:08.451Z,9.43
2018-11-13T10:37:36.939Z,8.50
2018-11-13T10:40:05.845Z,3.70
2018-11-13T10:42:33.854Z,4.12
2018-11-13T10:45:01.913Z,6.80
2018-11-13T10:47:29.947Z,10.33
2018-11-13T10:49:58.035Z,4.53
2018-11-13T10:52:26.374Z,4.37
2018-11-13T10:54:54.422Z,7.30
2018-11-13T10:57:22.827Z,5.83
2018-11-13T10:59:51.088Z,4.47
2018-11-13T11:02:24.446Z,3.73
2018-11-13T11:04:53.261Z,4.73
2018-11-13T11:07:21.395Z,13.67
2018-11-13T11:09:49.414Z,5.93
2018-11-13T11:12:17.446Z,10.90
2018-11-13T11:14:45.511Z,4.53
2018-11-13T11:17:13.539Z,9.43
2018-11-13T11:19:41.633Z,3.13
2018-11-13T11:22:09.679Z,3.80
2018-11-13T11:24:37.699Z,6.17
2018-11-13T11:27:05.726Z,12.10
2018-11-13T11:29:33.758Z,7.03
2018-11-13T11:32:01.803Z,5.63
2018-11-13T11:34:29.822Z,3.83
2018-11-13T11:36:57.847Z,2.50
2018-11-13T11:39:25.987Z,9.17
2018-11-13T11:41:54.016Z,5.30
2018-11-13T11:44:22.078Z,5.63
2018-11-13T11:46:50.087Z,3.20
2018-11-13T11:49:18.118Z,8.33
2018-11-13T11:51:46.146Z,2.73
2018-11-13T11:54:14.248Z,3.70
2018-11-13T11:56:42.327Z,6.57
2018-11-13T11:59:10.387Z,4.70
2018-11-13T12:01:38.426Z,7.80
2018-11-13T12:04:06.488Z,3.50
2018-11-13T12:06:34.534Z,4.60
2018-11-13T12:09:02.560Z,3.37
2018-11-13T12:11:30.594Z,4.63
2018-11-13T12:13:58.626Z,12.93
2018-11-13T12:16:26.661Z,6.20
2018-11-13T12:18:54.708Z,4.03
2018-11-13T12:21:22.736Z,4.53
2018-11-13T12:23:50.755Z,2.70
2018-11-13T12:26:19.095Z,2.27
2018-11-13T12:28:47.114Z,4.43
2018-11-13T12:31:15.138Z,5.23
2018-11-13T12:33:43.162Z,4.08
2018-11-13T12:36:11.203Z,4.97
2018-11-13T12:38:39.327Z,3.53
2018-11-13T12:41:07.394Z,2.73
2018-11-13T12:43:35.501Z,4.07
2018-11-13T12:46:03.547Z,7.13
2018-11-13T12:48:31.636Z,6.20
2018-11-13T12:51:04.794Z,4.00
2018-11-13T12:53:33.366Z,5.93
2018-11-13T12:56:01.860Z,3.50
2018-11-13T12:58:30.694Z,4.43
2018-11-13T13:00:58.704Z,4.87
2018-11-13T13:03:26.729Z,1.93
2018-11-13T13:05:54.794Z,3.53
2018-11-13T13:08:22.848Z,6.10
2018-11-13T13:10:50.903Z,3.83
2018-11-13T13:13:18.978Z,4.00
2018-11-13T13:15:47.048Z,3.50
2018-11-13T13:18:15.103Z,2.33
2018-11-13T13:20:43.130Z,3.15
2018-11-13T13:23:11.262Z,3.10
2018-11-13T13:25:39.328Z,2.57
2018-11-13T13:28:07.418Z,2.23
2018-11-13T13:30:35.485Z,5.93
2018-11-13T13:33:03.536Z,7.27
2018-11-13T13:35:50.354Z,5.13
2018-11-13T13:38:18.391Z,4.00
2018-11-13T13:40:47.845Z,4.30
2018-11-13T13:43:16.351Z,4.37
2018-11-13T13:45:45.342Z,4.58
2018-11-13T13:48:13.382Z,7.40
2018-11-13T13:50:41.402Z,4.70
2018-11-13T13:53:10.471Z,3.57
2018-11-13T13:55:38.615Z,2.63
2018-11-13T13:58:06.858Z,5.07
2018-11-13T14:00:34.945Z,4.80
2018-11-13T14:03:02.948Z,4.60
2018-11-13T14:05:30.994Z,3.95
2018-11-13T14:07:59.040Z,4.30
2018-11-13T14:10:27.063Z,6.23
2018-11-13T14:12:55.098Z,5.50
2018-11-13T14:15:23.186Z,30.97
2018-11-13T14:17:51.169Z,8.40
2018-11-13T14:20:20.262Z,3.00
2018-11-13T14:22:48.323Z,4.37
2018-11-13T14:25:16.392Z,3.07
2018-11-13T14:27:44.718Z,2.80
2018-11-13T14:30:17.540Z,3.90
2018-11-13T14:32:46.423Z,2.27
2018-11-13T14:35:14.801Z,2.90
2018-11-13T14:37:42.907Z,3.23
2018-11-13T14:40:15.663Z,3.17
2018-11-13T14:42:44.435Z,4.80
2018-11-13T14:45:12.506Z,6.90
2018-11-13T14:47:41.502Z,2.20
2018-11-13T14:50:10.033Z,5.47
2018-11-13T14:52:38.058Z,3.87
2018-11-13T14:55:08.410Z,2.67
2018-11-13T14:57:36.419Z,2.73
2018-11-13T15:00:05.795Z,7.50
2018-11-13T15:02:33.842Z,2.67
2018-11-13T15:05:02.023Z,4.57
2018-11-13T15:07:30.083Z,3.03
2018-11-13T15:09:58.174Z,3.47
2018-11-13T15:12:26.227Z,3.10
2018-11-13T15:14:54.258Z,5.27
2018-11-13T15:17:22.380Z,4.93
2018-11-13T15:19:50.433Z,3.57
2018-11-13T15:22:18.569Z,4.17
2018-11-13T15:24:46.898Z,3.03
2018-11-13T15:27:14.947Z,2.27
2018-11-13T15:29:43.012Z,3.93
2018-11-13T15:32:11.022Z,6.40
2018-11-13T15:34:39.139Z,2.70
2018-11-13T15:37:07.251Z,3.83
2018-11-13T15:39:35.283Z,2.77
2018-11-13T15:42:03.386Z,3.30
2018-11-13T15:44:31.484Z,3.57
2018-11-13T15:46:59.503Z,3.67
2018-11-13T15:49:27.539Z,3.87
2018-11-13T15:51:55.702Z,3.10
2018-11-13T15:54:23.732Z,4.25
2018-11-13T15:56:51.879Z,1.80
2018-11-13T15:59:20.012Z,2.90
2018-11-13T16:01:48.020Z,2.50
2018-11-13T16:04:16.107Z,2.70
2018-11-13T16:06:44.260Z,3.60
2018-11-13T16:09:12.294Z,4.50
2018-11-13T16:11:40.367Z,4.37
2018-11-13T16:14:08.426Z,5.17
2018-11-13T16:16:36.454Z,3.80
2018-11-13T16:19:04.578Z,2.10
2018-11-13T16:21:32.639Z,2.20
2018-11-13T16:24:00.646Z,1.90
2018-11-13T16:26:28.664Z,2.63
2018-11-13T16:28:56.687Z,2.37
2018-11-13T16:31:24.768Z,2.37
2018-11-13T16:33:52.758Z,4.00
2018-11-13T16:36:20.989Z,3.50
2018-11-13T16:38:49.015Z,3.73
2018-11-13T16:41:17.094Z,5.33
2018-11-13T16:43:45.167Z,2.43
2018-11-13T16:46:13.210Z,2.50
2018-11-13T16:48:41.542Z,3.50
2018-11-13T16:51:09.614Z,2.70
2018-11-13T16:53:43.012Z,2.50
2018-11-13T16:56:10.974Z,1.90
2018-11-13T16:58:39.058Z,2.20
2018-11-13T17:01:07.213Z,3.13
2018-11-13T17:03:35.407Z,2.50
2018-11-13T17:06:03.444Z,3.05
2018-11-13T17:08:31.455Z,5.23
2018-11-13T17:10:59.568Z,3.33
2018-11-13T17:13:27.646Z,3.30
2018-11-13T17:15:55.685Z,3.95
2018-11-13T17:18:23.774Z,5.20
2018-11-13T17:20:51.859Z,26.03
2018-11-13T17:23:19.984Z,49.63
2018-11-13T17:25:48.063Z,29.30
2018-11-13T17:28:16.070Z,29.87
2018-11-13T17:30:44.143Z,23.93
2018-11-13T17:33:12.254Z,55.60
2018-11-13T17:35:40.494Z,53.03
2018-11-13T17:38:08.628Z,73.33
2018-11-13T17:40:37.315Z,68.95
2018-11-13T17:43:06.485Z,78.80
2018-11-13T17:45:35.774Z,60.30
2018-11-13T17:48:03.883Z,50.47
2018-11-13T17:50:33.211Z,58.93
2018-11-13T17:53:01.407Z,57.85
2018-11-13T17:55:29.511Z,40.30
2018-11-13T17:57:59.174Z,44.47
2018-11-13T18:00:31.172Z,40.27
2018-11-13T18:02:59.554Z,43.75
2018-11-13T18:05:28.067Z,42.13
2018-11-13T18:07:57.209Z,35.87
2018-11-13T18:10:25.691Z,31.00
2018-11-13T18:12:53.720Z,34.57
2018-11-13T18:15:23.035Z,29.97
2018-11-13T18:17:51.347Z,24.70
2018-11-13T18:20:20.839Z,28.73
2018-11-13T18:22:48.931Z,29.17
2018-11-13T18:25:16.976Z,28.03
2018-11-13T18:27:47.421Z,26.93
2018-11-13T18:30:24.279Z,23.77
2018-11-13T18:32:52.739Z,22.83
2018-11-13T18:35:22.203Z,21.90
2018-11-13T18:37:51.045Z,19.63
2018-11-13T18:40:20.028Z,24.13
2018-11-13T18:42:49.051Z,21.13
2018-11-13T18:45:27.070Z,24.87
2018-11-13T18:47:55.166Z,22.97
2018-11-13T18:50:25.577Z,26.60
2018-11-13T18:52:53.663Z,20.03
2018-11-13T18:55:21.770Z,21.77
2018-11-13T18:57:49.855Z,21.03
2018-11-13T19:00:25.514Z,23.97
2018-11-13T19:02:53.561Z,14.33
2018-11-13T19:05:22.168Z,15.87
2018-11-13T19:07:50.322Z,13.50
2018-11-13T19:10:26.749Z,16.67
2018-11-13T19:12:56.048Z,15.60
2018-11-13T19:15:24.112Z,18.80
2018-11-13T19:17:52.672Z,24.63
2018-11-13T19:20:21.740Z,15.63
2018-11-13T19:22:49.710Z,14.90
2018-11-13T19:25:19.209Z,15.57
2018-11-13T19:27:47.806Z,17.53
2018-11-13T19:30:17.046Z,14.33
2018-11-13T19:32:45.075Z,23.27
2018-11-13T19:35:13.627Z,17.60
2018-11-13T19:37:41.812Z,11.85
2018-11-13T19:40:12.466Z,13.60
2018-11-13T19:42:40.564Z,12.80
2018-11-13T19:45:08.986Z,12.23
2018-11-13T19:47:37.781Z,16.73
2018-11-13T19:50:07.534Z,15.53
2018-11-13T19:52:35.619Z,13.47
2018-11-13T19:55:03.850Z,14.40
2018-11-13T19:57:31.946Z,12.53
2018-11-13T19:59:59.994Z,11.40
2018-11-13T20:05:18.215Z,14.90
2018-11-13T20:07:46.446Z,12.93
2018-11-13T20:10:17.417Z,14.70
2018-11-13T20:12:46.810Z,17.83
2018-11-13T20:15:15.263Z,13.23
2018-11-13T20:17:43.396Z,10.13
2018-11-13T20:20:14.988Z,7.05
2018-11-13T20:22:43.538Z,7.70
2018-11-13T20:25:20.158Z,9.47
2018-11-13T20:27:48.225Z,9.73
2018-11-13T20:30:26.503Z,8.33
2018-11-13T20:32:54.740Z,11.40
2018-11-13T20:35:22.968Z,12.57
2018-11-13T20:37:51.634Z,11.53
2018-11-13T20:40:20.931Z,8.87
2018-11-13T20:42:50.259Z,12.00
2018-11-13T20:45:18.436Z,7.90
2018-11-13T20:47:46.515Z,8.57
2018-11-13T20:50:16.214Z,14.33
2018-11-13T20:52:44.387Z,9.23
2018-11-13T20:55:12.610Z,9.43
2018-11-13T20:57:40.763Z,7.27
2018-11-13T21:00:12.537Z,10.07
2018-11-13T21:02:40.555Z,7.30
2018-11-13T21:05:08.734Z,8.10
2018-11-13T21:07:37.114Z,10.73
2018-11-13T21:10:07.183Z,10.03
2018-11-13T21:12:35.250Z,11.70
2018-11-13T21:15:03.395Z,7.43
2018-11-13T21:17:31.622Z,8.37
2018-11-13T21:19:59.558Z,10.47
2018-11-13T21:22:27.639Z,8.50
2018-11-13T21:24:55.823Z,7.60
2018-11-13T21:27:23.875Z,8.40
2018-11-13T21:29:52.088Z,10.55
2018-11-13T21:32:20.185Z,5.50
2018-11-13T21:34:48.291Z,11.00
2018-11-13T21:37:16.437Z,11.77
2018-11-13T21:39:44.446Z,11.43
2018-11-13T21:42:12.490Z,8.83
2018-11-13T21:44:41.511Z,11.30
2018-11-13T21:47:09.601Z,6.20
2018-11-13T21:49:37.784Z,10.70
2018-11-13T21:52:05.816Z,6.40
2018-11-13T21:54:33.874Z,6.60
2018-11-13T21:57:01.915Z,8.47
2018-11-13T21:59:29.982Z,6.50
2018-11-13T22:01:58.094Z,9.60
2018-11-13T22:04:26.180Z,7.17
2018-11-13T22:06:54.238Z,9.00
2018-11-13T22:09:22.327Z,7.83
2018-11-13T22:11:50.473Z,9.17
2018-11-13T22:14:18.650Z,6.07
2018-11-13T22:16:46.695Z,8.23
2018-11-13T22:19:14.689Z,8.83
2018-11-13T22:21:42.766Z,6.37
2018-11-13T22:24:10.820Z,6.50
2018-11-13T22:26:38.901Z,8.20
2018-11-13T22:29:07.068Z,7.83
2018-11-13T22:31:35.042Z,7.80
2018-11-13T22:34:03.154Z,9.13
2018-11-13T22:36:31.211Z,7.60
2018-11-13T22:38:59.336Z,7.40
2018-11-13T22:41:27.331Z,9.10
2018-11-13T22:43:55.415Z,8.47
2018-11-13T22:46:23.488Z,6.37
2018-11-13T22:48:51.585Z,4.07
2018-11-13T22:51:19.647Z,10.00
2018-11-13T22:53:47.731Z,7.93
2018-11-13T22:56:15.887Z,5.80
2018-11-13T22:58:43.991Z,6.43
2018-11-13T23:01:12.171Z,5.17
2018-11-13T23:03:40.150Z,8.37
2018-11-13T23:06:08.223Z,6.13
2018-11-13T23:08:36.291Z,5.10
2018-11-13T23:11:09.714Z,8.53
2018-11-13T23:13:37.775Z,6.73
2018-11-13T23:16:06.264Z,7.60
2018-11-13T23:18:34.338Z,5.90
2018-11-13T23:21:02.446Z,4.93
2018-11-13T23:23:30.526Z,7.20
2018-11-13T23:25:58.586Z,5.93
2018-11-13T23:28:26.730Z,5.63
2018-11-13T23:30:54.762Z,5.17
2018-11-13T23:33:22.831Z,7.17
2018-11-13T23:35:51.676Z,8.43
2018-11-13T23:38:19.748Z,7.70
2018-11-13T23:40:47.770Z,7.90
2018-11-13T23:43:15.807Z,7.90
2018-11-13T23:45:43.850Z,6.50
2018-11-13T23:48:11.875Z,6.50
2018-11-13T23:50:39.945Z,7.10
2018-11-13T23:53:08.099Z,10.77
2018-11-13T23:55:36.188Z,4.03
2018-11-13T23:58:04.250Z,5.93
